createdAt,value
2019-01-19T00:00:56.600Z,0.00
2019-01-19T00:01:56.570Z,0.00
2019-01-19T00:02:56.558Z,0.00
2019-01-19T00:03:56.584Z,0.00
2019-01-19T00:04:56.539Z,0.00
2019-01-19T00:05:56.527Z,0.00
2019-01-19T00:06:56.512Z,0.00
2019-01-19T00:07:56.506Z,0.00
2019-01-19T00:08:56.492Z,0.00
2019-01-19T00:09:56.506Z,0.00
2019-01-19T00:10:56.477Z,0.00
2019-01-19T00:11:56.477Z,0.00
2019-01-19T00:12:56.489Z,0.00
2019-01-19T00:13:56.461Z,0.00
2019-01-19T00:14:56.458Z,0.00
2019-01-19T00:15:56.418Z,0.00
2019-01-19T00:16:56.426Z,0.00
2019-01-19T00:17:56.396Z,0.00
2019-01-19T00:18:56.393Z,0.00
2019-01-19T00:19:56.424Z,0.00
2019-01-19T00:20:56.383Z,0.00
2019-01-19T00:21:56.359Z,0.00
2019-01-19T00:22:56.350Z,0.00
2019-01-19T00:23:56.332Z,0.00
2019-01-19T00:24:56.376Z,0.00
2019-01-19T00:25:56.315Z,0.00
2019-01-19T00:26:56.302Z,0.00
2019-01-19T00:27:56.320Z,0.00
2019-01-19T00:28:56.288Z,0.00
2019-01-19T00:29:56.289Z,0.00
2019-01-19T00:30:56.285Z,0.00
2019-01-19T00:31:56.251Z,0.00
2019-01-19T00:32:56.245Z,0.00
2019-01-19T00:33:56.247Z,0.00
2019-01-19T00:34:56.230Z,0.00
2019-01-19T00:35:56.237Z,0.00
2019-01-19T00:36:56.202Z,0.00
2019-01-19T00:37:56.189Z,0.00
2019-01-19T00:38:56.184Z,0.00
2019-01-19T00:39:56.168Z,0.00
2019-01-19T00:40:56.176Z,0.00
2019-01-19T00:41:56.156Z,0.00
2019-01-19T00:42:56.142Z,0.00
2019-01-19T00:43:56.126Z,0.00
2019-01-19T00:44:56.122Z,0.00
2019-01-19T00:45:56.123Z,0.00
2019-01-19T00:46:56.096Z,0.00
2019-01-19T00:47:56.088Z,0.00
2019-01-19T00:48:56.077Z,0.00
2019-01-19T00:49:56.065Z,0.00
2019-01-19T00:50:56.072Z,0.00
2019-01-19T00:51:56.055Z,0.00
2019-01-19T00:52:56.076Z,0.00
2019-01-19T00:53:56.052Z,0.00
2019-01-19T00:54:56.013Z,0.00
2019-01-19T00:55:56.025Z,0.00
2019-01-19T00:56:55.998Z,0.00
2019-01-19T00:57:55.984Z,0.00
2019-01-19T00:59:04.777Z,0.00
2019-01-19T00:59:55.965Z,0.00
2019-01-19T01:00:56.002Z,0.00
2019-01-19T01:01:55.950Z,0.00
2019-01-19T01:02:55.922Z,0.00
2019-01-19T01:03:55.918Z,0.00
2019-01-19T01:04:55.907Z,0.00
2019-01-19T01:05:55.902Z,0.00
2019-01-19T01:06:55.909Z,0.00
2019-01-19T01:07:55.902Z,0.00
2019-01-19T01:08:55.863Z,0.00
2019-01-19T01:09:55.888Z,0.00
2019-01-19T01:10:55.847Z,0.00
2019-01-19T01:11:55.884Z,0.00
2019-01-19T01:12:55.854Z,0.00
2019-01-19T01:13:55.821Z,0.00
2019-01-19T01:14:55.828Z,0.00
2019-01-19T01:15:55.834Z,0.00
2019-01-19T01:16:55.816Z,0.00
2019-01-19T01:17:55.777Z,0.00
2019-01-19T01:18:55.761Z,0.00
2019-01-19T01:19:55.743Z,0.00
2019-01-19T01:20:55.732Z,0.00
2019-01-19T01:21:55.746Z,0.00
2019-01-19T01:22:55.717Z,0.00
2019-01-19T01:23:55.714Z,0.00
2019-01-19T01:24:55.738Z,0.00
2019-01-19T01:25:55.682Z,0.00
2019-01-19T01:26:55.689Z,0.00
2019-01-19T01:27:55.669Z,0.00
2019-01-19T01:28:55.650Z,0.00
2019-01-19T01:29:55.645Z,0.00
2019-01-19T01:30:55.630Z,0.00
2019-01-19T01:31:55.638Z,0.00
2019-01-19T01:33:04.162Z,0.00
2019-01-19T01:33:55.597Z,0.00
2019-01-19T01:34:55.589Z,0.00
2019-01-19T01:35:55.608Z,0.00
2019-01-19T01:36:55.599Z,0.00
2019-01-19T01:37:55.563Z,0.00
2019-01-19T01:38:55.550Z,0.00
2019-01-19T01:39:55.539Z,0.00
2019-01-19T01:40:55.525Z,0.00
2019-01-19T01:41:55.533Z,0.00
2019-01-19T01:42:55.508Z,0.00
2019-01-19T01:43:55.504Z,0.00
2019-01-19T01:44:55.492Z,0.00
2019-01-19T01:45:55.483Z,0.00
2019-01-19T01:46:55.484Z,0.00
2019-01-19T01:47:55.458Z,0.00
2019-01-19T01:48:55.444Z,0.00
2019-01-19T01:49:55.434Z,0.00
2019-01-19T01:50:55.422Z,0.00
2019-01-19T01:51:55.435Z,0.00
2019-01-19T01:52:55.409Z,0.00
2019-01-19T01:53:55.390Z,0.00
2019-01-19T01:54:55.410Z,0.00
2019-01-19T01:55:55.387Z,0.00
2019-01-19T01:57:05.540Z,0.00
2019-01-19T01:58:02.894Z,0.00
2019-01-19T01:59:02.881Z,0.00
2019-01-19T02:00:02.867Z,0.00
2019-01-19T02:01:02.868Z,0.00
2019-01-19T02:02:02.868Z,0.00
2019-01-19T02:02:55.325Z,0.00
2019-01-19T02:03:55.284Z,0.00
2019-01-19T02:04:55.271Z,0.00
2019-01-19T02:05:55.269Z,0.00
2019-01-19T02:06:55.254Z,0.00
2019-01-19T02:07:55.267Z,0.00
2019-01-19T02:08:55.262Z,0.00
2019-01-19T02:09:55.221Z,0.00
2019-01-19T02:10:55.216Z,0.00
2019-01-19T02:11:55.205Z,0.00
2019-01-19T02:12:55.211Z,0.00
2019-01-19T02:13:55.181Z,0.00
2019-01-19T02:14:55.172Z,0.00
2019-01-19T02:15:55.163Z,0.00
2019-01-19T02:16:55.184Z,0.00
2019-01-19T02:17:55.193Z,0.00
2019-01-19T02:18:55.133Z,0.00
2019-01-19T02:19:55.135Z,0.00
2019-01-19T02:20:55.114Z,0.00
2019-01-19T02:21:55.212Z,0.00
2019-01-19T02:22:55.177Z,0.00
2019-01-19T02:23:55.127Z,0.00
2019-01-19T02:24:55.068Z,0.00
2019-01-19T02:25:55.056Z,0.00
2019-01-19T02:26:55.055Z,0.00
2019-01-19T02:27:55.039Z,0.00
2019-01-19T02:28:55.043Z,0.00
2019-01-19T02:29:55.025Z,0.00
2019-01-19T02:30:55.002Z,0.00
2019-01-19T02:31:54.991Z,0.00
2019-01-19T02:32:54.983Z,0.00
2019-01-19T02:33:55.018Z,0.00
2019-01-19T02:34:54.990Z,0.00
2019-01-19T02:35:54.951Z,0.00
2019-01-19T02:36:54.944Z,0.00
2019-01-19T02:37:54.938Z,0.00
2019-01-19T02:38:54.941Z,0.00
2019-01-19T02:39:54.914Z,0.00
2019-01-19T02:40:54.907Z,0.00
2019-01-19T02:41:54.898Z,0.00
2019-01-19T02:42:54.877Z,0.00
2019-01-19T02:43:54.903Z,0.00
2019-01-19T02:44:54.856Z,0.00
2019-01-19T02:45:54.843Z,0.00
2019-01-19T02:46:54.844Z,0.00
2019-01-19T02:47:54.820Z,0.00
2019-01-19T02:48:54.836Z,0.00
2019-01-19T02:49:54.801Z,0.00
2019-01-19T02:50:54.787Z,0.00
2019-01-19T02:51:54.791Z,0.00
2019-01-19T02:52:54.779Z,0.00
2019-01-19T02:53:54.759Z,0.00
2019-01-19T02:54:54.768Z,0.00
2019-01-19T02:55:54.735Z,0.00
2019-01-19T02:56:54.727Z,0.00
2019-01-19T02:57:54.718Z,0.00
2019-01-19T02:58:54.708Z,0.00
2019-01-19T02:59:54.753Z,0.00
2019-01-19T03:00:54.715Z,0.00
2019-01-19T03:01:54.674Z,0.00
2019-01-19T03:02:54.666Z,0.00
2019-01-19T03:03:54.673Z,0.00
2019-01-19T03:04:54.673Z,0.00
2019-01-19T03:05:56.244Z,0.00
2019-01-19T03:06:54.622Z,0.00
2019-01-19T03:07:54.651Z,0.00
2019-01-19T03:08:54.607Z,0.00
2019-01-19T03:09:54.618Z,0.00
2019-01-19T03:10:54.590Z,0.00
2019-01-19T03:11:54.574Z,0.00
2019-01-19T03:12:54.583Z,0.00
2019-01-19T03:13:54.560Z,0.00
2019-01-19T03:14:54.563Z,0.00
2019-01-19T03:15:54.544Z,0.00
2019-01-19T03:16:54.608Z,0.00
2019-01-19T03:17:54.520Z,0.00
2019-01-19T03:18:54.503Z,0.00
2019-01-19T03:19:54.530Z,0.00
2019-01-19T03:20:54.479Z,0.00
2019-01-19T03:21:54.475Z,0.00
2019-01-19T03:22:54.460Z,0.00
2019-01-19T03:23:54.466Z,0.00
2019-01-19T03:24:54.434Z,0.00
2019-01-19T03:25:54.451Z,0.00
2019-01-19T03:26:54.419Z,0.00
2019-01-19T03:27:54.405Z,0.00
2019-01-19T03:28:54.399Z,0.00
2019-01-19T03:29:54.389Z,0.00
2019-01-19T03:30:54.441Z,0.00
2019-01-19T03:31:54.369Z,0.00
2019-01-19T03:32:54.393Z,0.00
2019-01-19T03:33:54.355Z,0.00
2019-01-19T03:34:54.331Z,0.00
2019-01-19T03:35:54.344Z,0.00
2019-01-19T03:36:54.310Z,0.00
2019-01-19T03:39:22.704Z,0.00
2019-01-19T03:41:43.894Z,0.00
2019-01-19T03:42:54.894Z,0.00
2019-01-19T03:43:54.590Z,0.00
2019-01-19T03:44:43.851Z,0.00
2019-01-19T03:45:53.839Z,0.00
2019-01-19T03:46:43.828Z,0.00
2019-01-19T03:47:53.399Z,0.00
2019-01-19T03:48:51.345Z,0.00
2019-01-19T03:49:51.338Z,0.00
2019-01-19T03:50:55.414Z,0.00
2019-01-19T03:51:51.320Z,0.00
2019-01-19T03:52:51.315Z,0.00
2019-01-19T03:53:51.296Z,0.00
2019-01-19T03:54:51.301Z,0.00
2019-01-19T03:55:51.278Z,0.00
2019-01-19T03:56:54.671Z,0.00
2019-01-19T03:57:51.261Z,0.00
2019-01-19T03:58:51.243Z,0.00
2019-01-19T03:59:54.282Z,0.00
2019-01-19T04:00:53.506Z,0.00
2019-01-19T04:01:53.384Z,0.00
2019-01-19T04:02:53.078Z,0.00
2019-01-19T04:03:51.205Z,0.00
2019-01-19T04:04:52.470Z,0.00
2019-01-19T04:05:51.176Z,0.00
2019-01-19T04:06:43.646Z,0.00
2019-01-19T04:07:43.607Z,0.00
2019-01-19T04:08:43.619Z,0.00
2019-01-19T04:09:51.163Z,0.00
2019-01-19T04:10:43.584Z,0.00
2019-01-19T04:11:52.142Z,0.00
2019-01-19T04:12:51.097Z,0.00
2019-01-19T04:13:43.558Z,0.00
2019-01-19T04:14:43.533Z,0.00
2019-01-19T04:15:43.537Z,0.00
2019-01-19T04:18:01.319Z,0.00
2019-01-19T04:21:21.003Z,0.00
2019-01-19T04:23:31.250Z,0.00
2019-01-19T04:24:41.231Z,0.00
2019-01-19T04:28:10.125Z,0.00
2019-01-19T04:29:17.636Z,0.00
2019-01-19T04:30:10.070Z,0.00
2019-01-19T04:31:18.939Z,0.00
2019-01-19T04:32:18.625Z,0.00
2019-01-19T04:33:10.095Z,0.00
2019-01-19T04:34:10.032Z,0.00
2019-01-19T04:35:10.065Z,0.00
2019-01-19T04:36:10.070Z,0.00
2019-01-19T04:37:17.853Z,0.00
2019-01-19T04:39:26.196Z,0.00
2019-01-19T04:40:26.159Z,0.00
2019-01-19T04:41:26.173Z,0.00
2019-01-19T04:42:26.241Z,0.00
2019-01-19T04:43:26.146Z,0.00
2019-01-19T04:44:26.114Z,0.00
2019-01-19T04:45:26.157Z,0.00
2019-01-19T04:46:26.094Z,0.00
2019-01-19T04:47:26.084Z,0.00
2019-01-19T04:48:26.092Z,0.00
2019-01-19T04:49:26.062Z,0.00
2019-01-19T04:50:26.055Z,0.00
2019-01-19T04:51:26.051Z,0.00
2019-01-19T04:52:26.037Z,0.00
2019-01-19T04:53:26.056Z,0.00
2019-01-19T04:54:34.841Z,0.00
2019-01-19T04:55:26.006Z,0.00
2019-01-19T04:56:26.018Z,0.00
2019-01-19T04:57:34.543Z,0.00
2019-01-19T04:58:26.037Z,0.00
2019-01-19T04:59:34.855Z,0.00
2019-01-19T05:00:25.991Z,0.00
2019-01-19T05:01:25.981Z,0.00
2019-01-19T05:02:25.934Z,0.00
2019-01-19T05:03:25.969Z,0.00
2019-01-19T05:04:25.912Z,0.00
2019-01-19T05:05:25.897Z,0.00
2019-01-19T05:06:30.527Z,0.00
2019-01-19T05:07:25.906Z,0.00
2019-01-19T05:08:25.902Z,0.00
2019-01-19T05:09:25.863Z,0.00
2019-01-19T05:10:33.399Z,0.00
2019-01-19T05:11:33.391Z,0.00
2019-01-19T05:12:33.384Z,0.00
2019-01-19T05:13:34.704Z,0.00
2019-01-19T05:14:34.633Z,0.00
2019-01-19T05:15:25.793Z,0.00
2019-01-19T05:16:25.785Z,0.00
2019-01-19T05:17:25.821Z,0.00
2019-01-19T05:18:25.764Z,0.00
2019-01-19T05:19:25.776Z,0.00
2019-01-19T05:20:25.755Z,0.00
2019-01-19T05:21:25.739Z,0.00
2019-01-19T05:22:34.537Z,0.00
2019-01-19T05:23:33.260Z,0.00
2019-01-19T05:24:25.729Z,0.00
2019-01-19T05:25:25.686Z,0.00
2019-01-19T05:26:34.503Z,0.00
2019-01-19T05:27:25.668Z,0.00
2019-01-19T05:28:25.662Z,0.00
2019-01-19T05:29:25.692Z,0.00
2019-01-19T05:30:25.655Z,0.00
2019-01-19T05:31:25.625Z,0.00
2019-01-19T05:32:25.630Z,0.00
2019-01-19T05:33:33.160Z,0.00
2019-01-19T05:34:25.609Z,0.00
2019-01-19T05:35:25.610Z,0.00
2019-01-19T05:36:25.587Z,0.00
2019-01-19T05:37:25.611Z,0.00
2019-01-19T05:38:25.581Z,0.00
2019-01-19T05:39:25.539Z,0.00
2019-01-19T05:40:25.557Z,0.00
2019-01-19T05:41:25.521Z,0.00
2019-01-19T05:42:25.522Z,0.00
2019-01-19T05:43:25.506Z,0.00
2019-01-19T05:44:25.492Z,0.00
2019-01-19T05:45:25.501Z,0.00
2019-01-19T05:46:25.502Z,0.00
2019-01-19T05:47:25.468Z,0.00
2019-01-19T05:48:25.453Z,0.00
2019-01-19T05:49:25.455Z,0.00
2019-01-19T05:50:25.459Z,0.00
2019-01-19T05:51:25.434Z,0.00
2019-01-19T05:52:25.412Z,0.00
2019-01-19T05:53:32.962Z,0.00
2019-01-19T05:54:25.385Z,0.00
2019-01-19T05:55:25.396Z,0.00
2019-01-19T05:56:25.400Z,0.00
2019-01-19T05:57:25.365Z,0.00
2019-01-19T05:58:25.343Z,0.00
2019-01-19T05:59:25.338Z,0.00
2019-01-19T06:00:25.387Z,0.00
2019-01-19T06:01:32.857Z,0.00
2019-01-19T06:02:25.299Z,0.00
2019-01-19T06:03:25.297Z,0.00
2019-01-19T06:04:25.283Z,0.00
2019-01-19T06:05:32.838Z,0.00
2019-01-19T06:06:25.277Z,0.00
2019-01-19T06:07:25.249Z,0.00
2019-01-19T06:08:25.243Z,0.00
2019-01-19T06:09:25.258Z,0.00
2019-01-19T06:10:25.222Z,0.00
2019-01-19T06:11:25.295Z,0.00
2019-01-19T06:12:25.198Z,0.00
2019-01-19T06:13:25.222Z,0.00
2019-01-19T06:14:25.185Z,0.00
2019-01-19T06:15:25.179Z,0.00
2019-01-19T06:16:25.210Z,0.00
2019-01-19T06:17:25.148Z,0.00
2019-01-19T06:18:25.136Z,0.00
2019-01-19T06:19:25.132Z,0.00
2019-01-19T06:20:25.118Z,0.00
2019-01-19T06:21:25.126Z,0.00
2019-01-19T06:22:32.638Z,0.00
2019-01-19T06:23:25.077Z,0.00
2019-01-19T06:24:25.067Z,0.00
2019-01-19T06:25:25.079Z,0.00
2019-01-19T06:26:25.079Z,0.00
2019-01-19T06:27:25.043Z,0.00
2019-01-19T06:28:25.031Z,0.00
2019-01-19T06:29:25.023Z,0.00
2019-01-19T06:30:25.052Z,0.00
2019-01-19T06:31:24.999Z,0.00
2019-01-19T06:32:25.003Z,0.00
2019-01-19T06:33:24.975Z,0.00
2019-01-19T06:34:24.979Z,0.00
2019-01-19T06:35:24.955Z,0.00
2019-01-19T06:36:24.947Z,0.00
2019-01-19T06:37:24.955Z,0.00
2019-01-19T06:38:24.933Z,0.00
2019-01-19T06:39:24.918Z,0.00
2019-01-19T06:40:24.904Z,0.00
2019-01-19T06:41:24.919Z,0.00
2019-01-19T06:42:24.926Z,0.00
2019-01-19T06:43:24.883Z,0.00
2019-01-19T06:44:24.954Z,0.00
2019-01-19T06:45:24.945Z,0.00
2019-01-19T06:46:24.904Z,0.00
2019-01-19T06:47:24.861Z,0.00
2019-01-19T06:48:24.825Z,0.00
2019-01-19T06:49:24.813Z,0.00
2019-01-19T06:50:24.803Z,0.00
2019-01-19T06:51:24.817Z,0.00
2019-01-19T06:52:24.792Z,0.00
2019-01-19T06:53:33.623Z,0.00
2019-01-19T06:54:24.752Z,0.00
2019-01-19T06:55:24.748Z,0.00
2019-01-19T06:56:24.738Z,0.00
2019-01-19T06:57:24.727Z,0.00
2019-01-19T06:58:24.752Z,4.00
2019-01-19T06:59:24.702Z,4.00
2019-01-19T07:00:24.696Z,0.00
2019-01-19T07:01:24.685Z,4.00
2019-01-19T07:02:24.696Z,4.00
2019-01-19T07:03:24.724Z,4.00
2019-01-19T07:04:24.652Z,8.00
2019-01-19T07:05:24.683Z,4.00
2019-01-19T07:06:24.633Z,4.00
2019-01-19T07:07:24.673Z,8.00
2019-01-19T07:08:24.647Z,12.00
2019-01-19T07:09:24.629Z,8.00
2019-01-19T07:10:33.854Z,12.00
2019-01-19T07:11:24.604Z,12.00
2019-01-19T07:12:24.562Z,12.00
2019-01-19T07:13:24.577Z,16.00
2019-01-19T07:14:24.598Z,20.00
2019-01-19T07:15:24.531Z,24.00
2019-01-19T07:16:24.522Z,24.00
2019-01-19T07:17:24.517Z,28.00
2019-01-19T07:18:24.575Z,32.00
2019-01-19T07:19:24.522Z,36.00
2019-01-19T07:20:24.570Z,36.00
2019-01-19T07:21:24.485Z,40.00
2019-01-19T07:22:24.460Z,48.00
2019-01-19T07:23:24.472Z,56.00
2019-01-19T07:24:24.487Z,60.00
2019-01-19T07:25:24.426Z,64.00
2019-01-19T07:26:24.417Z,72.00
2019-01-19T07:27:24.414Z,80.00
2019-01-19T07:28:24.409Z,84.00
2019-01-19T07:29:24.415Z,92.00
2019-01-19T07:30:24.377Z,100.00
2019-01-19T07:31:24.366Z,112.00
2019-01-19T07:32:24.356Z,120.00
2019-01-19T07:33:24.357Z,128.00
2019-01-19T07:34:24.376Z,144.00
2019-01-19T07:35:24.325Z,156.00
2019-01-19T07:36:24.314Z,168.00
2019-01-19T07:37:24.316Z,180.00
2019-01-19T07:38:24.300Z,192.00
2019-01-19T07:39:24.351Z,208.00
2019-01-19T07:40:24.277Z,224.00
2019-01-19T07:41:24.260Z,240.00
2019-01-19T07:42:24.254Z,256.00
2019-01-19T07:43:24.243Z,276.00
2019-01-19T07:44:24.253Z,296.00
2019-01-19T07:45:31.820Z,316.00
2019-01-19T07:46:24.242Z,340.00
2019-01-19T07:47:24.247Z,360.00
2019-01-19T07:48:24.188Z,384.00
2019-01-19T07:49:24.206Z,400.00
2019-01-19T07:50:24.175Z,420.00
2019-01-19T07:51:25.672Z,440.00
2019-01-19T07:52:24.154Z,456.00
2019-01-19T07:53:24.134Z,472.00
2019-01-19T07:54:24.176Z,488.00
2019-01-19T07:55:24.138Z,504.00
2019-01-19T07:56:24.915Z,508.00
2019-01-19T07:57:31.061Z,520.00
2019-01-19T07:58:25.080Z,532.00
2019-01-19T07:59:24.079Z,540.00
2019-01-19T08:00:24.083Z,548.00
2019-01-19T08:01:24.066Z,564.00
2019-01-19T08:02:24.042Z,576.00
2019-01-19T08:03:24.034Z,588.00
2019-01-19T08:04:24.018Z,600.00
2019-01-19T08:05:24.058Z,612.00
2019-01-19T08:06:23.997Z,624.00
2019-01-19T08:07:23.993Z,636.00
2019-01-19T08:08:24.004Z,648.00
2019-01-19T08:09:23.971Z,664.00
2019-01-19T08:10:23.987Z,672.00
2019-01-19T08:11:23.952Z,684.00
2019-01-19T08:12:23.936Z,696.00
2019-01-19T08:13:23.976Z,708.00
2019-01-19T08:14:23.924Z,728.00
2019-01-19T08:15:23.947Z,748.00
2019-01-19T08:16:23.910Z,764.00
2019-01-19T08:17:23.913Z,780.00
2019-01-19T08:18:23.876Z,800.00
2019-01-19T08:19:23.899Z,832.00
2019-01-19T08:20:23.851Z,848.00
2019-01-19T08:21:23.864Z,856.00
2019-01-19T08:22:23.832Z,856.00
2019-01-19T08:23:23.825Z,860.00
2019-01-19T08:24:23.816Z,876.00
2019-01-19T08:25:23.836Z,892.00
2019-01-19T08:26:23.824Z,916.00
2019-01-19T08:27:23.813Z,944.00
2019-01-19T08:28:23.772Z,976.00
2019-01-19T08:29:23.761Z,1008.00
2019-01-19T08:30:23.790Z,1044.00
2019-01-19T08:31:23.767Z,1064.00
2019-01-19T08:32:23.809Z,1088.00
2019-01-19T08:33:23.762Z,1108.00
2019-01-19T08:34:23.706Z,1132.00
2019-01-19T08:35:23.743Z,1156.00
2019-01-19T08:36:23.711Z,1180.00
2019-01-19T08:37:24.509Z,1204.00
2019-01-19T08:38:23.676Z,1236.00
2019-01-19T08:39:23.680Z,1264.00
2019-01-19T08:40:23.645Z,1288.00
2019-01-19T08:41:23.655Z,1316.00
2019-01-19T08:42:23.641Z,1344.00
2019-01-19T08:43:23.617Z,1364.00
2019-01-19T08:44:23.615Z,1392.00
2019-01-19T08:45:23.594Z,1412.00
2019-01-19T08:46:23.620Z,1432.00
2019-01-19T08:47:23.995Z,1452.00
2019-01-19T08:48:23.578Z,1464.00
2019-01-19T08:49:23.572Z,1472.00
2019-01-19T08:50:23.602Z,1480.00
2019-01-19T08:51:23.532Z,1488.00
2019-01-19T08:52:23.563Z,1496.00
2019-01-19T08:53:23.515Z,1500.00
2019-01-19T08:54:23.498Z,1500.00
2019-01-19T08:55:23.496Z,1492.00
2019-01-19T08:56:23.477Z,1496.00
2019-01-19T08:57:23.535Z,1508.00
2019-01-19T08:58:23.458Z,1516.00
2019-01-19T08:59:23.614Z,1528.00
2019-01-19T09:00:23.451Z,1536.00
2019-01-19T09:01:23.429Z,1544.00
2019-01-19T09:02:23.417Z,1552.00
2019-01-19T09:03:23.421Z,1552.00
2019-01-19T09:04:23.401Z,1552.00
2019-01-19T09:05:23.384Z,1548.00
2019-01-19T09:06:23.368Z,1540.00
2019-01-19T09:07:23.359Z,1536.00
2019-01-19T09:08:23.367Z,1524.00
2019-01-19T09:09:23.543Z,1508.00
2019-01-19T09:10:23.328Z,1500.00
2019-01-19T09:11:23.318Z,1500.00
2019-01-19T09:12:23.309Z,1496.00
2019-01-19T09:13:23.322Z,1492.00
2019-01-19T09:14:23.285Z,1488.00
2019-01-19T09:15:23.287Z,1480.00
2019-01-19T09:16:23.266Z,1472.00
2019-01-19T09:17:23.257Z,1464.00
2019-01-19T09:18:23.266Z,1456.00
2019-01-19T09:19:23.238Z,1440.00
2019-01-19T09:20:23.223Z,1428.00
2019-01-19T09:21:23.249Z,1408.00
2019-01-19T09:22:23.205Z,1388.00
2019-01-19T09:23:23.213Z,1372.00
2019-01-19T09:24:23.181Z,1348.00
2019-01-19T09:25:30.757Z,1324.00
2019-01-19T09:26:23.166Z,1312.00
2019-01-19T09:27:23.152Z,1288.00
2019-01-19T09:28:23.142Z,1268.00
2019-01-19T09:29:23.150Z,1252.00
2019-01-19T09:30:23.244Z,1232.00
2019-01-19T09:31:23.115Z,1224.00
2019-01-19T09:32:23.130Z,1208.00
2019-01-19T09:33:23.095Z,1196.00
2019-01-19T09:34:23.112Z,1180.00
2019-01-19T09:35:23.078Z,1164.00
2019-01-19T09:36:23.061Z,1156.00
2019-01-19T09:37:23.044Z,1144.00
2019-01-19T09:38:23.043Z,1140.00
2019-01-19T09:39:23.053Z,1136.00
2019-01-19T09:40:23.024Z,1132.00
2019-01-19T09:41:23.014Z,1132.00
2019-01-19T09:42:22.993Z,1128.00
2019-01-19T09:43:22.979Z,1128.00
2019-01-19T09:44:23.013Z,1124.00
2019-01-19T09:45:22.993Z,1116.00
2019-01-19T09:46:22.958Z,1112.00
2019-01-19T09:47:22.940Z,1104.00
2019-01-19T09:48:22.930Z,1096.00
2019-01-19T09:49:22.936Z,1092.00
2019-01-19T09:50:22.914Z,1096.00
2019-01-19T09:51:22.898Z,1092.00
2019-01-19T09:52:22.895Z,1096.00
2019-01-19T09:53:22.875Z,1100.00
2019-01-19T09:54:22.883Z,1100.00
2019-01-19T09:55:22.856Z,1104.00
2019-01-19T09:56:22.845Z,1104.00
2019-01-19T09:57:22.833Z,1104.00
2019-01-19T09:58:22.850Z,1112.00
2019-01-19T09:59:22.878Z,1116.00
2019-01-19T10:00:22.802Z,1116.00
2019-01-19T10:01:22.793Z,1120.00
2019-01-19T10:02:22.790Z,1124.00
2019-01-19T10:03:22.769Z,1124.00
2019-01-19T10:04:22.780Z,1104.00
2019-01-19T10:05:22.776Z,1108.00
2019-01-19T10:06:22.739Z,1108.00
2019-01-19T10:07:22.727Z,1108.00
2019-01-19T10:08:22.722Z,1104.00
2019-01-19T10:09:22.710Z,1096.00
2019-01-19T10:10:22.729Z,1092.00
2019-01-19T10:11:22.687Z,1088.00
2019-01-19T10:12:22.676Z,1084.00
2019-01-19T10:13:22.683Z,1092.00
2019-01-19T10:14:22.656Z,1096.00
2019-01-19T10:15:22.672Z,1116.00
2019-01-19T10:16:22.647Z,1124.00
2019-01-19T10:17:22.690Z,1128.00
2019-01-19T10:18:22.614Z,1136.00
2019-01-19T10:19:22.632Z,1152.00
2019-01-19T10:20:22.683Z,1164.00
2019-01-19T10:21:22.594Z,1180.00
2019-01-19T10:22:22.656Z,1192.00
2019-01-19T10:23:22.627Z,1200.00
2019-01-19T10:24:22.566Z,1212.00
2019-01-19T10:25:22.581Z,1212.00
2019-01-19T10:26:22.604Z,1216.00
2019-01-19T10:27:22.518Z,1212.00
2019-01-19T10:28:22.507Z,1208.00
2019-01-19T10:29:22.495Z,1208.00
2019-01-19T10:30:22.509Z,1204.00
2019-01-19T10:31:22.489Z,1196.00
2019-01-19T10:32:22.477Z,1192.00
2019-01-19T10:33:22.500Z,1192.00
2019-01-19T10:34:22.456Z,1192.00
2019-01-19T10:35:22.430Z,1192.00
2019-01-19T10:36:22.481Z,1188.00
2019-01-19T10:37:22.413Z,1188.00
2019-01-19T10:38:22.401Z,1188.00
2019-01-19T10:39:22.409Z,1192.00
2019-01-19T10:40:22.379Z,1200.00
2019-01-19T10:41:22.388Z,1208.00
2019-01-19T10:42:22.355Z,1216.00
2019-01-19T10:43:22.356Z,1224.00
2019-01-19T10:44:22.361Z,1236.00
2019-01-19T10:45:22.422Z,1240.00
2019-01-19T10:46:22.375Z,1252.00
2019-01-19T10:47:22.309Z,1268.00
2019-01-19T10:48:22.319Z,1276.00
2019-01-19T10:49:22.328Z,1284.00
2019-01-19T10:50:22.294Z,1288.00
2019-01-19T10:51:22.350Z,1292.00
2019-01-19T10:52:22.281Z,1296.00
2019-01-19T10:53:22.242Z,1308.00
2019-01-19T10:54:22.405Z,1308.00
2019-01-19T10:55:22.586Z,1316.00
2019-01-19T10:56:22.579Z,1324.00
2019-01-19T10:57:22.249Z,1320.00
2019-01-19T10:58:22.195Z,1308.00
2019-01-19T10:59:22.228Z,1296.00
2019-01-19T11:00:22.171Z,1280.00
2019-01-19T11:01:22.159Z,1272.00
2019-01-19T11:02:22.215Z,1252.00
2019-01-19T11:03:22.140Z,1240.00
2019-01-19T11:04:22.130Z,1220.00
2019-01-19T11:05:22.117Z,1216.00
2019-01-19T11:06:22.149Z,1200.00
2019-01-19T11:07:22.165Z,1196.00
2019-01-19T11:08:22.092Z,1192.00
2019-01-19T11:09:22.078Z,1188.00
2019-01-19T11:10:22.080Z,1180.00
2019-01-19T11:11:22.112Z,1180.00
2019-01-19T11:12:22.063Z,1176.00
2019-01-19T11:13:22.098Z,1180.00
2019-01-19T11:14:22.022Z,1164.00
2019-01-19T11:15:22.014Z,1152.00
2019-01-19T11:16:22.013Z,1136.00
2019-01-19T11:17:22.008Z,1128.00
2019-01-19T11:18:21.988Z,1104.00
2019-01-19T11:19:21.977Z,1092.00
2019-01-19T11:20:21.959Z,1076.00
2019-01-19T11:21:21.948Z,1080.00
2019-01-19T11:22:21.958Z,1076.00
2019-01-19T11:23:21.962Z,1064.00
2019-01-19T11:24:21.935Z,1064.00
2019-01-19T11:25:21.904Z,1060.00
2019-01-19T11:26:21.905Z,1060.00
2019-01-19T11:27:29.594Z,1056.00
2019-01-19T11:28:21.953Z,1056.00
2019-01-19T11:29:21.871Z,1068.00
2019-01-19T11:30:21.853Z,1064.00
2019-01-19T11:31:21.925Z,1068.00
2019-01-19T11:32:21.854Z,1068.00
2019-01-19T11:33:21.822Z,1068.00
2019-01-19T11:34:21.826Z,1056.00
2019-01-19T11:35:21.801Z,1060.00
2019-01-19T11:36:21.788Z,1060.00
2019-01-19T11:37:21.803Z,1068.00
2019-01-19T11:38:21.861Z,1068.00
2019-01-19T11:39:21.767Z,1080.00
2019-01-19T11:40:21.783Z,1108.00
2019-01-19T11:41:21.792Z,1124.00
2019-01-19T11:42:21.755Z,1144.00
2019-01-19T11:43:21.718Z,1160.00
2019-01-19T11:44:21.710Z,1164.00
2019-01-19T11:45:21.708Z,1156.00
2019-01-19T11:46:21.686Z,1144.00
2019-01-19T11:47:21.699Z,1132.00
2019-01-19T11:48:21.669Z,1124.00
2019-01-19T11:49:21.702Z,1120.00
2019-01-19T11:50:22.752Z,1108.00
2019-01-19T11:51:21.636Z,1104.00
2019-01-19T11:52:21.640Z,1096.00
2019-01-19T11:53:21.617Z,1092.00
2019-01-19T11:54:21.610Z,1100.00
2019-01-19T11:55:21.601Z,1104.00
2019-01-19T11:56:21.582Z,1096.00
2019-01-19T11:57:21.633Z,1096.00
2019-01-19T11:58:21.559Z,1100.00
2019-01-19T11:59:21.548Z,1100.00
2019-01-19T12:00:21.548Z,1096.00
2019-01-19T12:01:21.574Z,1084.00
2019-01-19T12:02:21.543Z,1084.00
2019-01-19T12:03:21.507Z,1080.00
2019-01-19T12:04:21.497Z,1076.00
2019-01-19T12:05:21.489Z,1068.00
2019-01-19T12:06:21.489Z,1064.00
2019-01-19T12:07:21.490Z,1068.00
2019-01-19T12:08:21.476Z,1060.00
2019-01-19T12:09:21.472Z,1052.00
2019-01-19T12:10:21.440Z,1052.00
2019-01-19T12:11:21.428Z,1044.00
2019-01-19T12:12:21.436Z,1052.00
2019-01-19T12:13:21.403Z,1060.00
2019-01-19T12:14:21.394Z,1060.00
2019-01-19T12:15:21.381Z,1048.00
2019-01-19T12:16:21.374Z,1040.00
2019-01-19T12:17:21.383Z,1048.00
2019-01-19T12:18:21.371Z,1064.00
2019-01-19T12:19:21.345Z,1064.00
2019-01-19T12:20:21.330Z,1068.00
2019-01-19T12:21:21.320Z,1060.00
2019-01-19T12:22:21.311Z,1052.00
2019-01-19T12:23:21.327Z,1040.00
2019-01-19T12:24:21.290Z,1028.00
2019-01-19T12:25:21.279Z,1020.00
2019-01-19T12:26:21.265Z,1016.00
2019-01-19T12:27:21.257Z,1012.00
2019-01-19T12:28:21.260Z,1012.00
2019-01-19T12:29:21.242Z,1008.00
2019-01-19T12:30:21.229Z,1008.00
2019-01-19T12:31:21.218Z,1004.00
2019-01-19T12:32:21.202Z,1008.00
2019-01-19T12:33:21.218Z,1004.00
2019-01-19T12:34:21.188Z,1008.00
2019-01-19T12:35:21.191Z,1004.00
2019-01-19T12:36:21.182Z,996.00
2019-01-19T12:37:21.149Z,988.00
2019-01-19T12:38:26.756Z,980.00
2019-01-19T12:39:22.126Z,976.00
2019-01-19T12:40:21.121Z,972.00
2019-01-19T12:41:21.120Z,972.00
2019-01-19T12:42:21.098Z,964.00
2019-01-19T12:43:21.132Z,960.00
2019-01-19T12:44:21.073Z,960.00
2019-01-19T12:45:21.066Z,952.00
2019-01-19T12:46:21.051Z,940.00
2019-01-19T12:47:21.068Z,908.00
2019-01-19T12:48:21.032Z,884.00
2019-01-19T12:49:21.047Z,864.00
2019-01-19T12:50:21.011Z,852.00
2019-01-19T12:51:21.005Z,860.00
2019-01-19T12:52:21.002Z,900.00
2019-01-19T12:53:21.001Z,920.00
2019-01-19T12:54:20.997Z,936.00
2019-01-19T12:55:20.956Z,948.00
2019-01-19T12:56:20.949Z,956.00
2019-01-19T12:57:20.940Z,960.00
2019-01-19T12:58:20.929Z,956.00
2019-01-19T12:59:20.939Z,964.00